Knossos Palace — SYQO — position and weather

sailwx.info

Track history (hours):
 
Tides and Currents Weather Stations Pressure Air Temp Water Temp Dewpoint Dewpoint Depression Visibility Wind Speed Wind Dir Waves Ship Positions

Knossos Palace

Last reported at 2014-Jul-25 00:33 UTC. Time now 2014-Jul-25 01:33 UTC.
Position N 36°58' E 024°05'.

Length 214 m; beam 26.4 m; draft 7.3 m.

Type: Passenger vessel. MMSI: 237641000.

Date/timePositionNaut miles runAvg speedWind from/ knotsBaromVisibWave heightAir tempDewpointWater temp
2014-Jul-25 00:33N 36°58' E 024°05'2120.9
2014-Jul-24 23:34N 36°39' E 024°15'2121.0
2014-Jul-24 22:34N 36°21' E 024°28'2020.3
2014-Jul-24 21:34N 36°03' E 024°40'2020.1
2014-Jul-24 20:34N 35°45' E 024°52'2020.3
2014-Jul-24 19:33N 35°28' E 025°05'8 7.6
2014-Jul-24 18:33N 35°21' E 025°09'21 1.3
2014-Jul-24 02:28N 35°39' E 024°57'1920.9
2014-Jul-24 01:33N 35°56' E 024°45'2120.7
2014-Jul-24 00:33N 36°14' E 024°32'2120.5
2014-Jul-23 23:33N 36°31' E 024°19'2120.7
2014-Jul-23 22:33N 36°50' E 024°07'2121.4
2014-Jul-23 21:33N 37°10' E 023°57'2321.3
2014-Jul-23 20:28N 37°31' E 023°46'1921.1
2014-Jul-23 19:33N 37°49' E 023°37'8 7.7
2014-Jul-23 18:33N 37°57' E 023°38'0 0.0
2014-Jul-23 17:32N 37°57' E 023°38'0 0.0
2014-Jul-23 16:32N 37°57' E 023°38'0 0.0
2014-Jul-23 15:32N 37°57' E 023°38'0 0.0
2014-Jul-23 14:32N 37°57' E 023°38'0 0.0
2014-Jul-23 13:32N 37°57' E 023°38'0 0.0
2014-Jul-23 12:32N 37°57' E 023°38'0 0.0
2014-Jul-23 11:29N 37°57' E 023°38'0 0.0
2014-Jul-23 09:32N 37°57' E 023°38'0 0.0
2014-Jul-23 08:32N 37°57' E 023°38'0 0.0
2014-Jul-23 07:32N 37°57' E 023°38'0 0.0
2014-Jul-23 06:32N 37°57' E 023°38'0 0.0
2014-Jul-23 05:32N 37°57' E 023°38'2 1.2
2014-Jul-23 03:33N 37°54' E 023°38'4720.8
2014-Jul-23 01:17N 37°11' E 023°60'1520.2
2014-Jul-23 00:33N 36°57' E 024°06'2020.2
2014-Jul-22 23:32N 36°38' E 024°15'2120.2
2014-Jul-22 22:31N 36°20' E 024°28'1819.2
2014-Jul-22 21:34N 36°04' E 024°40'2019.3
2014-Jul-22 20:32N 35°47' E 024°51'2020.9
2014-Jul-22 19:33N 35°29' E 025°04'9 8.8
2014-Jul-22 18:32N 35°21' E 025°09'0 0.0
2014-Jul-22 17:06N 35°21' E 025°09'0 0.0
2014-Jul-22 08:30N 35°21' E 025°09'0 0.0
2014-Jul-22 05:26N 35°21' E 025°09'0 0.0
2014-Jul-22 04:33N 35°21' E 025°09'0 0.5
2014-Jul-22 03:34N 35°21' E 025°09'1919.0
2014-Jul-22 02:32N 35°38' E 024°58'2020.8
2014-Jul-22 01:33N 35°56' E 024°45'2221.9
2014-Jul-22 00:33N 36°15' E 024°32'2121.1
2014-Jul-21 23:33N 36°33' E 024°18'2120.9
2014-Jul-21 22:33N 36°52' E 024°07'2120.9
2014-Jul-21 21:33N 37°11' E 023°58'2720.5
2014-Jul-21 20:14N 37°36' E 023°44'1420.8
2014-Jul-21 19:33N 37°49' E 023°37'8 7.7
2014-Jul-21 18:33N 37°57' E 023°38'0 0.0
2014-Jul-21 17:31N 37°57' E 023°38'0 0.0
2014-Jul-21 16:31N 37°57' E 023°38'0 0.0
2014-Jul-21 15:31N 37°57' E 023°38'0 0.0
2014-Jul-21 14:31N 37°57' E 023°38'0 0.0
2014-Jul-21 13:31N 37°57' E 023°38'0 0.0
2014-Jul-21 12:31N 37°57' E 023°38'0 0.0
2014-Jul-21 11:31N 37°57' E 023°38'0 0.0
2014-Jul-21 10:28N 37°57' E 023°38'0 0.0
2014-Jul-21 09:31N 37°57' E 023°38'0 0.0
2014-Jul-21 08:28N 37°57' E 023°38'0 0.0
2014-Jul-21 07:31N 37°57' E 023°38'0 0.0
2014-Jul-21 06:31N 37°57' E 023°38'0 0.0
2014-Jul-21 04:07N 37°57' E 023°38'2 3.0
2014-Jul-21 03:33N 37°55' E 023°37'6220.5
2014-Jul-21 00:32N 36°58' E 024°05'2120.8
2014-Jul-20 23:33N 36°39' E 024°15'2121.0
2014-Jul-20 22:32N 36°20' E 024°28'2020.4
2014-Jul-20 21:32N 36°02' E 024°41'1919.8
2014-Jul-20 20:34N 35°46' E 024°52'2020.1
2014-Jul-20 19:33N 35°28' E 025°05'12 0.7
2014-Jul-20 02:32N 35°39' E 024°58'2020.8
2014-Jul-20 01:33N 35°56' E 024°45'2121.3
2014-Jul-20 00:33N 36°15' E 024°31'2121.1
2014-Jul-19 23:33N 36°33' E 024°19'2120.9
2014-Jul-19 22:33N 36°52' E 024°07'2920.9
2014-Jul-19 21:09N 37°19' E 023°54'39 7.0
2014-Jul-19 15:29N 37°56' E 023°38'5122.3
2014-Jul-19 13:12N 37°08' E 024°00'1524.2
2014-Jul-19 12:34N 36°54' E 024°07'2424.2
2014-Jul-19 11:33N 36°32' E 024°19'2424.1
2014-Jul-19 10:33N 36°11' E 024°34'2423.7
2014-Jul-19 09:34N 35°51' E 024°49'2423.9
2014-Jul-19 08:33N 35°30' E 025°04'10 9.8
2014-Jul-19 07:32N 35°21' E 025°09'0 0.0
2014-Jul-19 06:24N 35°21' E 025°09'0 0.0
2014-Jul-19 05:22N 35°21' E 025°09'0 0.0
2014-Jul-19 04:33N 35°21' E 025°09'2 1.7
2014-Jul-19 03:28N 35°22' E 025°09'1819.9
2014-Jul-19 02:33N 35°38' E 024°58'2120.9
2014-Jul-19 01:32N 35°56' E 024°45'2121.2
2014-Jul-19 00:33N 36°14' E 024°32'2020.6
2014-Jul-18 23:33N 36°32' E 024°19'2120.7
2014-Jul-18 22:33N 36°51' E 024°08'2120.8
2014-Jul-18 21:33N 37°10' E 023°57'2120.8
2014-Jul-18 20:33N 37°29' E 023°48'2121.0
2014-Jul-18 19:33N 37°49' E 023°37'8 8.1
2014-Jul-18 18:33N 37°57' E 023°38'0 0.0
2014-Jul-18 17:32N 37°57' E 023°38'0 0.0
2014-Jul-18 16:32N 37°57' E 023°38'0 0.1
2014-Jul-18 15:33N 37°56' E 023°38'1818.1
2014-Jul-18 14:33N 37°39' E 023°46'3124.5
2014-Jul-18 13:17N 37°10' E 023°60'1824.5
2014-Jul-18 12:33N 36°54' E 024°08'2424.2
2014-Jul-18 11:33N 36°31' E 024°19'2423.9
2014-Jul-18 10:33N 36°11' E 024°34'2423.7
2014-Jul-18 09:34N 35°50' E 024°49'2423.5
2014-Jul-18 08:33N 35°30' E 025°04'10 9.4
2014-Jul-18 07:29N 35°21' E 025°09'1 0.3
2014-Jul-18 03:29N 35°21' E 025°10'2020.3
2014-Jul-18 02:30N 35°39' E 024°57'2121.6
2014-Jul-18 01:31N 35°57' E 024°44'2121.9
2014-Jul-18 00:33N 36°15' E 024°31'2121.0
2014-Jul-17 23:33N 36°33' E 024°18'2220.9
2014-Jul-17 22:30N 36°53' E 024°06'4220.7
2014-Jul-17 20:27N 37°32' E 023°46'1920.7
2014-Jul-17 19:34N 37°50' E 023°37'7 7.0
2014-Jul-17 18:33N 37°57' E 023°38'0 0.0
2014-Jul-17 17:33N 37°57' E 023°38'0 0.0
2014-Jul-17 16:33N 37°57' E 023°38'0 0.0
2014-Jul-17 15:33N 37°57' E 023°38'0 0.0
2014-Jul-17 14:33N 37°57' E 023°38'0 0.0
2014-Jul-17 13:33N 37°57' E 023°38'0 0.0
2014-Jul-17 12:33N 37°57' E 023°38'0 0.0
2014-Jul-17 11:33N 37°57' E 023°38'0 0.0
2014-Jul-17 10:33N 37°57' E 023°38'0 0.0
2014-Jul-17 09:33N 37°57' E 023°38'0 0.0
2014-Jul-17 08:33N 37°57' E 023°38'0 0.0
2014-Jul-17 07:33N 37°57' E 023°38'0 0.0
2014-Jul-17 06:33N 37°57' E 023°38'0 0.0
2014-Jul-17 05:33N 37°57' E 023°38'0 0.0
2014-Jul-17 04:33N 37°57' E 023°38'1 1.3
2014-Jul-17 03:33N 37°56' E 023°37'6019.9
2014-Jul-17 00:32N 37°00' E 024°05'2320.9
2014-Jul-16 23:25N 36°38' E 024°15'2021.0
2014-Jul-16 22:28N 36°21' E 024°27'1920.8
2014-Jul-16 21:32N 36°04' E 024°39'2120.7
2014-Jul-16 20:30N 35°46' E 024°52'1 0.1
2014-Jul-16 02:13N 35°45' E 024°53'1420.9
2014-Jul-16 01:32N 35°57' E 024°44'2120.8
2014-Jul-16 00:33N 36°15' E 024°31'2120.8
2014-Jul-15 23:33N 36°33' E 024°19'2120.8
2014-Jul-15 22:33N 36°52' E 024°07'2220.9
2014-Jul-15 21:30N 37°12' E 023°57'2620.8
2014-Jul-15 20:13N 37°36' E 023°44'1421.2
2014-Jul-15 19:33N 37°49' E 023°37'8 7.5
2014-Jul-15 18:34N 37°57' E 023°38'0 0.0
2014-Jul-15 17:31N 37°57' E 023°38'0 0.0
2014-Jul-15 16:31N 37°57' E 023°38'0 0.0
2014-Jul-15 15:31N 37°57' E 023°38'0 0.0
2014-Jul-15 14:31N 37°57' E 023°38'0 0.0
2014-Jul-15 13:31N 37°57' E 023°38'0 0.0
2014-Jul-15 12:31N 37°57' E 023°38'0 0.0
2014-Jul-15 11:31N 37°57' E 023°38'0 0.0
2014-Jul-15 10:31N 37°57' E 023°38'0 0.0
2014-Jul-15 09:31N 37°57' E 023°38'0 0.0
2014-Jul-15 08:31N 37°57' E 023°38'0 0.0
2014-Jul-15 07:31N 37°57' E 023°38'0 0.0
2014-Jul-15 06:31N 37°57' E 023°38'0 0.0
2014-Jul-15 05:31N 37°57' E 023°38'0 0.0
2014-Jul-15 04:31N 37°57' E 023°38'2 2.2
2014-Jul-15 03:34N 37°55' E 023°37'1818.4
2014-Jul-15 02:33N 37°38' E 023°47'4120.7
2014-Jul-15 00:33N 36°59' E 024°05'  
Track history (hours):
 
Tides and Currents Weather Stations Pressure Air Temp Water Temp Dewpoint Dewpoint Depression Visibility Wind Speed Wind Dir Waves Ship Positions

Knossos Palace

Last reported at 2014-Jul-25 00:33 UTC. Time now 2014-Jul-25 01:33 UTC.
Position N 36°58' E 024°05'.

Length 214 m; beam 26.4 m; draft 7.3 m.

Type: Passenger vessel. MMSI: 237641000.

Date/timePositionNaut miles runAvg speedWind from/ knotsBaromVisibWave heightAir tempDewpointWater temp
2014-Jul-25 00:33N 36°58' E 024°05'2120.9
2014-Jul-24 23:34N 36°39' E 024°15'2121.0
2014-Jul-24 22:34N 36°21' E 024°28'2020.3
2014-Jul-24 21:34N 36°03' E 024°40'2020.1
2014-Jul-24 20:34N 35°45' E 024°52'2020.3
2014-Jul-24 19:33N 35°28' E 025°05'8 7.6
2014-Jul-24 18:33N 35°21' E 025°09'21 1.3
2014-Jul-24 02:28N 35°39' E 024°57'1920.9
2014-Jul-24 01:33N 35°56' E 024°45'2120.7
2014-Jul-24 00:33N 36°14' E 024°32'2120.5
2014-Jul-23 23:33N 36°31' E 024°19'2120.7
2014-Jul-23 22:33N 36°50' E 024°07'2121.4
2014-Jul-23 21:33N 37°10' E 023°57'2321.3
2014-Jul-23 20:28N 37°31' E 023°46'1921.1
2014-Jul-23 19:33N 37°49' E 023°37'8 7.7
2014-Jul-23 18:33N 37°57' E 023°38'0 0.0
2014-Jul-23 17:32N 37°57' E 023°38'0 0.0
2014-Jul-23 16:32N 37°57' E 023°38'0 0.0
2014-Jul-23 15:32N 37°57' E 023°38'0 0.0
2014-Jul-23 14:32N 37°57' E 023°38'0 0.0
2014-Jul-23 13:32N 37°57' E 023°38'0 0.0
2014-Jul-23 12:32N 37°57' E 023°38'0 0.0
2014-Jul-23 11:29N 37°57' E 023°38'0 0.0
2014-Jul-23 09:32N 37°57' E 023°38'0 0.0
2014-Jul-23 08:32N 37°57' E 023°38'0 0.0
2014-Jul-23 07:32N 37°57' E 023°38'0 0.0
2014-Jul-23 06:32N 37°57' E 023°38'0 0.0
2014-Jul-23 05:32N 37°57' E 023°38'2 1.2
2014-Jul-23 03:33N 37°54' E 023°38'4720.8
2014-Jul-23 01:17N 37°11' E 023°60'1520.2
2014-Jul-23 00:33N 36°57' E 024°06'2020.2
2014-Jul-22 23:32N 36°38' E 024°15'2120.2
2014-Jul-22 22:31N 36°20' E 024°28'1819.2
2014-Jul-22 21:34N 36°04' E 024°40'2019.3
2014-Jul-22 20:32N 35°47' E 024°51'2020.9
2014-Jul-22 19:33N 35°29' E 025°04'9 8.8
2014-Jul-22 18:32N 35°21' E 025°09'0 0.0
2014-Jul-22 17:06N 35°21' E 025°09'0 0.0
2014-Jul-22 08:30N 35°21' E 025°09'0 0.0
2014-Jul-22 05:26N 35°21' E 025°09'0 0.0
2014-Jul-22 04:33N 35°21' E 025°09'0 0.5
2014-Jul-22 03:34N 35°21' E 025°09'1919.0
2014-Jul-22 02:32N 35°38' E 024°58'2020.8
2014-Jul-22 01:33N 35°56' E 024°45'2221.9
2014-Jul-22 00:33N 36°15' E 024°32'2121.1
2014-Jul-21 23:33N 36°33' E 024°18'2120.9
2014-Jul-21 22:33N 36°52' E 024°07'2120.9
2014-Jul-21 21:33N 37°11' E 023°58'2720.5
2014-Jul-21 20:14N 37°36' E 023°44'1420.8
2014-Jul-21 19:33N 37°49' E 023°37'8 7.7
2014-Jul-21 18:33N 37°57' E 023°38'0 0.0
2014-Jul-21 17:31N 37°57' E 023°38'0 0.0
2014-Jul-21 16:31N 37°57' E 023°38'0 0.0
2014-Jul-21 15:31N 37°57' E 023°38'0 0.0
2014-Jul-21 14:31N 37°57' E 023°38'0 0.0
2014-Jul-21 13:31N 37°57' E 023°38'0 0.0
2014-Jul-21 12:31N 37°57' E 023°38'0 0.0
2014-Jul-21 11:31N 37°57' E 023°38'0 0.0
2014-Jul-21 10:28N 37°57' E 023°38'0 0.0
2014-Jul-21 09:31N 37°57' E 023°38'0 0.0
2014-Jul-21 08:28N 37°57' E 023°38'0 0.0
2014-Jul-21 07:31N 37°57' E 023°38'0 0.0
2014-Jul-21 06:31N 37°57' E 023°38'0 0.0
2014-Jul-21 04:07N 37°57' E 023°38'2 3.0
2014-Jul-21 03:33N 37°55' E 023°37'6220.5
2014-Jul-21 00:32N 36°58' E 024°05'2120.8
2014-Jul-20 23:33N 36°39' E 024°15'2121.0
2014-Jul-20 22:32N 36°20' E 024°28'2020.4
2014-Jul-20 21:32N 36°02' E 024°41'1919.8
2014-Jul-20 20:34N 35°46' E 024°52'2020.1
2014-Jul-20 19:33N 35°28' E 025°05'12 0.7
2014-Jul-20 02:32N 35°39' E 024°58'2020.8
2014-Jul-20 01:33N 35°56' E 024°45'2121.3
2014-Jul-20 00:33N 36°15' E 024°31'2121.1
2014-Jul-19 23:33N 36°33' E 024°19'2120.9
2014-Jul-19 22:33N 36°52' E 024°07'2920.9
2014-Jul-19 21:09N 37°19' E 023°54'39 7.0
2014-Jul-19 15:29N 37°56' E 023°38'5122.3
2014-Jul-19 13:12N 37°08' E 024°00'1524.2
2014-Jul-19 12:34N 36°54' E 024°07'2424.2
2014-Jul-19 11:33N 36°32' E 024°19'2424.1
2014-Jul-19 10:33N 36°11' E 024°34'2423.7
2014-Jul-19 09:34N 35°51' E 024°49'2423.9
2014-Jul-19 08:33N 35°30' E 025°04'10 9.8
2014-Jul-19 07:32N 35°21' E 025°09'0 0.0
2014-Jul-19 06:24N 35°21' E 025°09'0 0.0
2014-Jul-19 05:22N 35°21' E 025°09'0 0.0
2014-Jul-19 04:33N 35°21' E 025°09'2 1.7
2014-Jul-19 03:28N 35°22' E 025°09'1819.9
2014-Jul-19 02:33N 35°38' E 024°58'2120.9
2014-Jul-19 01:32N 35°56' E 024°45'2121.2
2014-Jul-19 00:33N 36°14' E 024°32'2020.6
2014-Jul-18 23:33N 36°32' E 024°19'2120.7
2014-Jul-18 22:33N 36°51' E 024°08'2120.8
2014-Jul-18 21:33N 37°10' E 023°57'2120.8
2014-Jul-18 20:33N 37°29' E 023°48'2121.0
2014-Jul-18 19:33N 37°49' E 023°37'8 8.1
2014-Jul-18 18:33N 37°57' E 023°38'0 0.0
2014-Jul-18 17:32N 37°57' E 023°38'0 0.0
2014-Jul-18 16:32N 37°57' E 023°38'0 0.1
2014-Jul-18 15:33N 37°56' E 023°38'1818.1
2014-Jul-18 14:33N 37°39' E 023°46'3124.5
2014-Jul-18 13:17N 37°10' E 023°60'1824.5
2014-Jul-18 12:33N 36°54' E 024°08'2424.2
2014-Jul-18 11:33N 36°31' E 024°19'2423.9
2014-Jul-18 10:33N 36°11' E 024°34'2423.7
2014-Jul-18 09:34N 35°50' E 024°49'2423.5
2014-Jul-18 08:33N 35°30' E 025°04'10 9.4
2014-Jul-18 07:29N 35°21' E 025°09'1 0.3
2014-Jul-18 03:29N 35°21' E 025°10'2020.3
2014-Jul-18 02:30N 35°39' E 024°57'2121.6
2014-Jul-18 01:31N 35°57' E 024°44'2121.9
2014-Jul-18 00:33N 36°15' E 024°31'2121.0
2014-Jul-17 23:33N 36°33' E 024°18'2220.9
2014-Jul-17 22:30N 36°53' E 024°06'4220.7
2014-Jul-17 20:27N 37°32' E 023°46'1920.7
2014-Jul-17 19:34N 37°50' E 023°37'7 7.0
2014-Jul-17 18:33N 37°57' E 023°38'0 0.0
2014-Jul-17 17:33N 37°57' E 023°38'0 0.0
2014-Jul-17 16:33N 37°57' E 023°38'0 0.0
2014-Jul-17 15:33N 37°57' E 023°38'0 0.0
2014-Jul-17 14:33N 37°57' E 023°38'0 0.0
2014-Jul-17 13:33N 37°57' E 023°38'0 0.0
2014-Jul-17 12:33N 37°57' E 023°38'0 0.0
2014-Jul-17 11:33N 37°57' E 023°38'0 0.0
2014-Jul-17 10:33N 37°57' E 023°38'0 0.0
2014-Jul-17 09:33N 37°57' E 023°38'0 0.0
2014-Jul-17 08:33N 37°57' E 023°38'0 0.0
2014-Jul-17 07:33N 37°57' E 023°38'0 0.0
2014-Jul-17 06:33N 37°57' E 023°38'0 0.0
2014-Jul-17 05:33N 37°57' E 023°38'0 0.0
2014-Jul-17 04:33N 37°57' E 023°38'1 1.3
2014-Jul-17 03:33N 37°56' E 023°37'6019.9
2014-Jul-17 00:32N 37°00' E 024°05'2320.9
2014-Jul-16 23:25N 36°38' E 024°15'2021.0
2014-Jul-16 22:28N 36°21' E 024°27'1920.8
2014-Jul-16 21:32N 36°04' E 024°39'2120.7
2014-Jul-16 20:30N 35°46' E 024°52'1 0.1
2014-Jul-16 02:13N 35°45' E 024°53'1420.9
2014-Jul-16 01:32N 35°57' E 024°44'2120.8
2014-Jul-16 00:33N 36°15' E 024°31'2120.8
2014-Jul-15 23:33N 36°33' E 024°19'2120.8
2014-Jul-15 22:33N 36°52' E 024°07'2220.9
2014-Jul-15 21:30N 37°12' E 023°57'2620.8
2014-Jul-15 20:13N 37°36' E 023°44'1421.2
2014-Jul-15 19:33N 37°49' E 023°37'8 7.5
2014-Jul-15 18:34N 37°57' E 023°38'0 0.0
2014-Jul-15 17:31N 37°57' E 023°38'0 0.0
2014-Jul-15 16:31N 37°57' E 023°38'0 0.0
2014-Jul-15 15:31N 37°57' E 023°38'0 0.0
2014-Jul-15 14:31N 37°57' E 023°38'0 0.0
2014-Jul-15 13:31N 37°57' E 023°38'0 0.0
2014-Jul-15 12:31N 37°57' E 023°38'0 0.0
2014-Jul-15 11:31N 37°57' E 023°38'0 0.0
2014-Jul-15 10:31N 37°57' E 023°38'0 0.0
2014-Jul-15 09:31N 37°57' E 023°38'0 0.0
2014-Jul-15 08:31N 37°57' E 023°38'0 0.0
2014-Jul-15 07:31N 37°57' E 023°38'0 0.0
2014-Jul-15 06:31N 37°57' E 023°38'0 0.0
2014-Jul-15 05:31N 37°57' E 023°38'0 0.0
2014-Jul-15 04:31N 37°57' E 023°38'2 2.2
2014-Jul-15 03:34N 37°55' E 023°37'1818.4
2014-Jul-15 02:33N 37°38' E 023°47'4120.7
2014-Jul-15 00:33N 36°59' E 024°05'  

Dump ship's entire track history